createdAt,value
2023-01-29T09:30:32.916Z,6.47
2023-01-29T09:33:02.203Z,7.10
2023-01-29T09:35:31.171Z,8.20
2023-01-29T09:38:00.283Z,7.90
2023-01-29T09:40:37.001Z,9.65
2023-01-29T09:43:12.082Z,9.00
2023-01-29T09:48:15.038Z,8.25
2023-01-29T09:51:19.620Z,8.32
2023-01-29T09:53:53.644Z,9.35
2023-01-29T09:56:28.954Z,8.85
2023-01-29T09:59:01.529Z,8.40
2023-01-29T10:01:38.737Z,8.80
2023-01-29T10:04:53.556Z,7.60
2023-01-29T10:07:39.851Z,7.57
2023-01-29T10:10:35.481Z,8.10
2023-01-29T10:13:15.134Z,9.10
2023-01-29T10:16:09.432Z,9.07
2023-01-29T10:19:12.598Z,9.20
2023-01-29T10:22:07.737Z,8.27
2023-01-29T10:24:40.072Z,10.05
2023-01-29T10:27:16.006Z,8.35
2023-01-29T10:29:47.165Z,9.27
2023-01-29T10:32:19.214Z,9.95
2023-01-29T10:34:53.962Z,8.75
2023-01-29T10:37:25.273Z,9.05
2023-01-29T10:39:54.081Z,8.27
2023-01-29T10:42:32.356Z,8.30
2023-01-29T10:45:21.059Z,8.35
2023-01-29T10:48:09.488Z,14.77
2023-01-29T10:51:02.475Z,8.98
2023-01-29T10:53:53.884Z,7.80
2023-01-29T10:56:40.923Z,8.32
2023-01-29T10:59:20.632Z,9.65
2023-01-29T11:01:52.604Z,8.27
2023-01-29T11:04:22.167Z,9.10
2023-01-29T11:06:52.884Z,8.88
2023-01-29T11:12:47.920Z,8.50
2023-01-29T11:15:21.681Z,8.07
2023-01-29T11:18:10.965Z,8.63
2023-01-29T11:20:39.999Z,8.63
2023-01-29T11:24:21.354Z,9.23
2023-01-29T11:27:18.438Z,8.57
2023-01-29T11:30:17.965Z,8.70
2023-01-29T11:32:53.284Z,8.55
2023-01-29T11:37:54.599Z,9.30
2023-01-29T11:40:56.002Z,9.15
2023-01-29T11:43:31.500Z,8.32
2023-01-29T11:46:07.024Z,8.70
2023-01-29T11:49:09.931Z,8.57
2023-01-29T11:51:54.715Z,8.02
2023-01-29T11:54:28.760Z,8.73
2023-01-29T11:57:00.005Z,8.70
2023-01-29T11:59:42.533Z,8.30
2023-01-29T12:02:29.793Z,8.50
2023-01-29T12:05:09.925Z,8.43
2023-01-29T12:07:43.842Z,7.65
2023-01-29T12:10:37.403Z,7.30
2023-01-29T12:17:12.013Z,8.10
2023-01-29T12:19:45.725Z,7.72
2023-01-29T12:22:22.817Z,6.82
2023-01-29T12:24:59.060Z,7.13
2023-01-29T12:27:41.294Z,7.95
2023-01-29T12:31:02.137Z,7.70
2023-01-29T12:33:42.593Z,7.63
2023-01-29T12:36:19.041Z,7.40
2023-01-29T12:38:48.208Z,7.18
2023-01-29T12:41:40.241Z,7.57
2023-01-29T12:44:15.843Z,7.50
2023-01-29T12:46:53.300Z,7.45
2023-01-29T12:49:26.642Z,7.55
2023-01-29T12:52:05.555Z,7.53
2023-01-29T12:54:39.681Z,6.82
2023-01-29T12:57:27.644Z,6.75
2023-01-29T13:00:07.162Z,7.60
2023-01-29T13:02:42.022Z,6.38
2023-01-29T13:05:34.045Z,7.35
2023-01-29T13:08:21.582Z,6.35
2023-01-29T13:11:38.308Z,6.45
2023-01-29T13:14:14.999Z,6.35
2023-01-29T13:17:15.401Z,6.07
2023-01-29T13:19:49.635Z,6.75
2023-01-29T13:22:39.204Z,6.97
2023-01-29T13:25:14.006Z,6.68
2023-01-29T13:28:22.087Z,6.82
2023-01-29T13:37:29.076Z,6.28
2023-01-29T13:40:23.124Z,6.55
2023-01-29T13:42:54.492Z,7.22
2023-01-29T13:45:26.113Z,7.60
2023-01-29T13:47:58.446Z,7.15
2023-01-29T13:50:38.884Z,7.05
2023-01-29T13:53:21.568Z,7.82
2023-01-29T13:56:45.458Z,7.60
2023-01-29T13:59:36.199Z,7.20
2023-01-29T14:02:34.881Z,7.50
2023-01-29T14:05:41.218Z,7.35
2023-01-29T14:08:47.691Z,7.93
2023-01-29T14:11:36.021Z,7.55
2023-01-29T14:17:33.320Z,7.93
2023-01-29T14:20:07.313Z,7.70
2023-01-29T14:22:36.409Z,8.27
2023-01-29T14:25:23.696Z,7.30
2023-01-29T14:27:52.754Z,7.65
2023-01-29T14:30:31.228Z,8.43
2023-01-29T14:33:02.323Z,8.38
2023-01-29T14:35:39.285Z,9.38
2023-01-29T14:38:09.018Z,7.93
2023-01-29T14:40:55.594Z,8.23
2023-01-29T14:43:24.480Z,7.70
2023-01-29T14:45:56.381Z,7.82
2023-01-29T14:48:48.848Z,8.20
2023-01-29T14:51:19.364Z,9.27
2023-01-29T14:53:58.880Z,8.73
2023-01-29T14:56:34.934Z,8.40
2023-01-29T14:59:59.645Z,9.25
2023-01-29T15:02:37.460Z,8.65
2023-01-29T15:05:28.332Z,9.10
2023-01-29T15:08:02.201Z,8.35
2023-01-29T15:10:41.903Z,9.00
2023-01-29T15:13:30.003Z,8.57
2023-01-29T15:16:16.222Z,8.60
2023-01-29T15:18:45.625Z,7.75
2023-01-29T15:21:15.928Z,9.60
2023-01-29T15:23:45.676Z,8.13
2023-01-29T15:26:19.749Z,8.77
2023-01-29T15:29:03.285Z,9.05
2023-01-29T15:31:33.650Z,8.40
2023-01-29T15:34:06.557Z,9.30
2023-01-29T15:36:40.052Z,8.65
2023-01-29T15:39:18.082Z,9.50
2023-01-29T15:41:56.524Z,9.15
2023-01-29T15:44:30.041Z,11.25
2023-01-29T15:47:02.620Z,9.48
2023-01-29T15:49:34.955Z,9.73
2023-01-29T15:52:07.802Z,9.68
2023-01-29T15:54:37.624Z,9.98
2023-01-29T15:57:07.405Z,9.20
2023-01-29T15:59:44.934Z,10.88
2023-01-29T16:02:40.432Z,11.45
2023-01-29T16:05:15.491Z,10.30
2023-01-29T16:07:45.562Z,12.00
2023-01-29T16:10:20.432Z,10.73
2023-01-29T16:12:52.701Z,12.50
2023-01-29T16:15:40.430Z,11.48
2023-01-29T16:18:22.962Z,11.40
2023-01-29T16:20:53.891Z,11.43
2023-01-29T16:23:27.841Z,12.07
2023-01-29T16:26:02.921Z,15.27
2023-01-29T16:28:32.432Z,11.00
2023-01-29T16:31:04.493Z,13.13
2023-01-29T16:33:37.060Z,12.05
2023-01-29T16:36:12.193Z,11.65
2023-01-29T16:38:44.491Z,12.05
2023-01-29T16:41:29.226Z,11.52
2023-01-29T16:43:59.768Z,10.52
2023-01-29T16:46:36.031Z,11.13
2023-01-29T16:49:21.831Z,11.55
2023-01-29T16:51:50.561Z,12.25
2023-01-29T16:54:23.845Z,11.50
2023-01-29T16:56:56.033Z,11.68
2023-01-29T16:59:33.121Z,13.00
2023-01-29T17:02:03.961Z,13.73
2023-01-29T17:04:32.874Z,12.73
2023-01-29T17:07:03.884Z,13.50
2023-01-29T17:09:35.524Z,13.35
2023-01-29T17:12:07.572Z,14.85
2023-01-29T17:14:38.884Z,13.43
2023-01-29T17:17:16.270Z,13.70
2023-01-29T17:19:45.233Z,13.80
2023-01-29T17:22:15.102Z,13.93
2023-01-29T17:24:47.037Z,13.98
2023-01-29T17:27:23.056Z,14.52
2023-01-29T17:30:00.425Z,14.38
2023-01-29T17:32:43.990Z,13.27
2023-01-29T17:35:29.204Z,14.63
2023-01-29T18:18:03.001Z,17.92
2023-01-29T18:20:36.734Z,17.10
2023-01-29T18:23:06.814Z,17.08
2023-01-29T18:25:35.778Z,17.15
2023-01-29T18:28:04.992Z,16.67
2023-01-29T18:30:34.024Z,17.80
2023-01-29T18:33:04.022Z,16.85
2023-01-29T18:35:32.509Z,16.88
2023-01-29T18:38:01.072Z,16.15
2023-01-29T18:40:29.942Z,17.10
2023-01-29T18:43:00.939Z,16.08
2023-01-29T18:45:29.897Z,17.20
2023-01-29T18:47:58.873Z,16.35
2023-01-29T18:50:29.207Z,16.08
2023-01-29T18:52:57.847Z,16.08
2023-01-29T18:55:27.123Z,15.90
2023-01-29T18:58:28.537Z,16.92
2023-01-29T19:00:44.473Z,15.50
2023-01-29T19:03:12.955Z,18.50
2023-01-29T19:05:42.791Z,15.48
2023-01-29T19:08:11.606Z,15.18
2023-01-29T19:10:40.657Z,16.55
2023-01-29T19:13:09.943Z,15.43
2023-01-29T19:15:38.424Z,15.52
2023-01-29T19:18:07.029Z,15.07
2023-01-29T19:20:35.487Z,15.82
2023-01-29T19:23:05.354Z,17.58
2023-01-29T19:25:37.247Z,18.90
